Orbital elements of COSMOS 970 DEB
| Launched | 20 December 1977 |
| Flight ended | – |
| Launch site | Tyuratam Missile and Space Center, Kazakhstan (Also known as Baikonur Cosmodrome) |
| Owner | Commonwealth of Independent States (former USSR) |
| NORAD ID | 10880 |
| Date fetched |
Epoch osculation |
Inc. [°] |
Ecc. | RA asc node [hr] |
Arg Peri. [°] |
Mean anom [°] |
Mean motion [rev/day] |
Abs. mag |
| Date fetched |
Epoch osculation |
Inc. [°] |
Ecc. | RA asc node [hr] |
Arg Peri. [°] |
Mean anom [°] |
Mean motion [rev/day] |
Abs. mag |
| 2026 May 03 17:57 | 2026 Apr 30 12:52:54 | 65.8385 | 0.01187 | 10.5809 | 244.3872 | 266.9756 | 13.66162 | – |
| 2026 May 02 17:57 | 2026 Apr 30 12:52:54 | 65.8385 | 0.01187 | 10.5809 | 244.3872 | 266.9756 | 13.66162 | – |
| 2026 May 01 17:56 | 2026 Apr 30 12:52:54 | 65.8385 | 0.01187 | 10.5809 | 244.3872 | 266.9756 | 13.66162 | – |
| 2026 Apr 30 17:56 | 2026 Apr 30 12:52:54 | 65.8385 | 0.01187 | 10.5809 | 244.3872 | 266.9756 | 13.66162 | – |
| 2026 Apr 29 17:57 | 2026 Apr 24 10:50:09 | 65.8394 | 0.01188 | 11.5682 | 247.0884 | 266.9756 | 13.66162 | – |
| 2026 Apr 28 17:56 | 2026 Apr 24 10:50:09 | 65.8394 | 0.01188 | 11.5682 | 247.0884 | 266.9756 | 13.66162 | – |
| 2026 Apr 27 17:58 | 2026 Apr 24 10:50:09 | 65.8394 | 0.01188 | 11.5682 | 247.0884 | 266.9756 | 13.66162 | – |
| 2026 Apr 26 17:58 | 2026 Apr 24 10:50:09 | 65.8394 | 0.01188 | 11.5682 | 247.0884 | 266.9756 | 13.66162 | – |
| 2026 Apr 25 17:58 | 2026 Apr 24 10:50:09 | 65.8394 | 0.01188 | 11.5682 | 247.0884 | 266.9756 | 13.66162 | – |
| 2026 Apr 24 17:59 | 2026 Apr 24 10:50:09 | 65.8394 | 0.01188 | 11.5682 | 247.0884 | 266.9756 | 13.66162 | – |
| 2026 Apr 23 17:57 | 2026 Apr 18 05:07:04 | 65.8401 | 0.01188 | 12.5802 | 249.8620 | 266.9756 | 13.66162 | – |
| 2026 Apr 22 17:57 | 2026 Apr 18 05:07:04 | 65.8401 | 0.01188 | 12.5802 | 249.8620 | 266.9756 | 13.66162 | – |
| 2026 Apr 21 17:57 | 2026 Apr 18 05:07:04 | 65.8401 | 0.01188 | 12.5802 | 249.8620 | 266.9756 | 13.66162 | – |
| 2026 Apr 20 17:57 | 2026 Apr 18 05:07:04 | 65.8401 | 0.01188 | 12.5802 | 249.8620 | 266.9756 | 13.66162 | – |
| 2026 Apr 19 17:58 | 2026 Apr 18 05:07:04 | 65.8401 | 0.01188 | 12.5802 | 249.8620 | 266.9756 | 13.66162 | – |
| 2026 Apr 18 17:56 | 2026 Apr 13 05:37:18 | 65.8404 | 0.01188 | 13.3880 | 252.0822 | 266.9756 | 13.66162 | – |
| 2026 Apr 16 17:57 | 2026 Apr 13 05:37:18 | 65.8404 | 0.01188 | 13.3880 | 252.0822 | 266.9756 | 13.66162 | – |
| 2026 Apr 14 17:57 | 2026 Apr 13 05:37:18 | 65.8404 | 0.01188 | 13.3880 | 252.0822 | 266.9756 | 13.66162 | – |
| 2026 Apr 13 17:57 | 2026 Apr 13 05:37:18 | 65.8404 | 0.01188 | 13.3880 | 252.0822 | 266.9756 | 13.66162 | – |
| 2026 Apr 12 17:57 | 2026 Apr 08 07:56:50 | 65.8402 | 0.01188 | 14.1834 | 254.2721 | 266.9756 | 13.66162 | – |
| 2026 Apr 11 17:57 | 2026 Apr 08 07:56:50 | 65.8402 | 0.01188 | 14.1834 | 254.2721 | 266.9756 | 13.66162 | – |
| 2026 Apr 10 17:58 | 2026 Apr 08 07:56:50 | 65.8402 | 0.01188 | 14.1834 | 254.2721 | 266.9756 | 13.66162 | – |
| 2026 Apr 09 18:01 | 2026 Apr 08 07:56:50 | 65.8402 | 0.01188 | 14.1834 | 254.2721 | 266.9756 | 13.66162 | – |
| 2026 Apr 08 17:57 | 2026 Apr 08 07:56:50 | 65.8402 | 0.01188 | 14.1834 | 254.2721 | 266.9756 | 13.66162 | – |
| 2026 Apr 07 17:57 | 2026 Apr 02 03:19:46 | 65.8395 | 0.01188 | 15.1880 | 257.0473 | 266.9756 | 13.66162 | – |
| 2026 Apr 06 17:57 | 2026 Apr 02 03:19:46 | 65.8395 | 0.01188 | 15.1880 | 257.0473 | 266.9756 | 13.66162 | – |